Time;durP1;ratioP1;P1;durP2;ratioP2;P2;SDS_P1;SDS_P2;PMS_P1;PMS_P2;Temp;Humidity;BMP_temperature;BMP_pressure;BME280_temperature;BME280_humidity;BME280_pressure;Samples;Min_cycle;Max_cycle;Signal;HPM_P1;HPM_P2
2021/04/15 00:00:49;;;;;;;6.97;5.47;;;;;;;4.94;34.14;102377.00;4989173;28;98912;-74
2021/04/15 00:03:18;;;;;;;5.93;5.30;;;;;;;4.92;33.91;102376.91;4973513;28;99497;-73
2021/04/15 00:05:46;;;;;;;5.32;4.88;;;;;;;4.90;34.04;102375.00;4990820;28;97329;-74
2021/04/15 00:08:16;;;;;;;5.47;5.18;;;;;;;4.89;34.04;102381.06;4987480;28;97023;-74
2021/04/15 00:10:46;;;;;;;5.30;4.80;;;;;;;4.88;34.06;102374.84;4991498;28;98521;-74
2021/04/15 00:13:19;;;;;;;5.45;5.25;;;;;;;4.85;34.04;102386.94;5007505;28;97907;-74
2021/04/15 00:15:46;;;;;;;6.35;5.80;;;;;;;4.83;33.99;102385.91;4992403;28;97255;-74
2021/04/15 00:18:13;;;;;;;6.13;5.72;;;;;;;4.83;34.18;102380.63;4989793;28;97562;-74
2021/04/15 00:20:40;;;;;;;5.15;4.68;;;;;;;4.81;34.19;102375.25;4992500;28;99599;-74
2021/04/15 00:23:07;;;;;;;5.03;4.72;;;;;;;4.78;34.16;102375.06;4981161;28;99390;-74
2021/04/15 00:25:33;;;;;;;5.30;5.00;;;;;;;4.72;33.97;102379.88;4989677;28;97348;-74
2021/04/15 00:28:00;;;;;;;5.43;5.07;;;;;;;4.67;34.63;102380.38;4989623;28;97630;-73
2021/04/15 00:30:28;;;;;;;6.38;5.82;;;;;;;4.66;34.12;102383.81;4990041;28;97605;-74
2021/04/15 00:32:55;;;;;;;5.10;4.80;;;;;;;4.65;34.28;102377.63;4990961;28;97974;-73
2021/04/15 00:35:22;;;;;;;5.35;4.85;;;;;;;4.65;34.30;102381.97;4997885;28;97560;-74
2021/04/15 00:37:49;;;;;;;5.70;5.30;;;;;;;4.67;34.23;102383.00;4991406;28;96841;-74
2021/04/15 00:40:17;;;;;;;5.07;4.78;;;;;;;4.63;34.33;102379.25;5010437;28;99651;-74
2021/04/15 00:42:44;;;;;;;6.07;5.28;;;;;;;4.61;34.35;102377.31;4993890;28;98551;-74
2021/04/15 00:45:17;;;;;;;5.53;5.13;;;;;;;4.55;34.14;102374.25;4998917;28;97590;-73
2021/04/15 00:47:46;;;;;;;6.68;5.28;;;;;;;4.52;34.53;102374.03;4990672;28;97389;-73
2021/04/15 00:50:16;;;;;;;5.10;4.70;;;;;;;4.53;34.32;102375.84;4990105;28;97523;-74
2021/04/15 00:52:48;;;;;;;5.50;5.13;;;;;;;4.50;34.40;102373.91;4995075;28;98792;-75
2021/04/15 00:55:18;;;;;;;5.72;5.32;;;;;;;4.49;34.24;102376.44;4996979;28;96824;-75
2021/04/15 00:57:48;;;;;;;5.70;5.25;;;;;;;4.45;34.54;102380.59;5005871;27;97015;-74
2021/04/15 01:00:17;;;;;;;5.95;4.93;;;;;;;4.45;34.65;102379.66;5012939;28;100177;-74
2021/04/15 01:02:45;;;;;;;5.30;4.97;;;;;;;4.43;34.22;102378.63;4988731;28;98066;-74
2021/04/15 01:05:15;;;;;;;6.65;5.28;;;;;;;4.45;34.37;102384.94;4990385;28;97266;-74
2021/04/15 01:07:42;;;;;;;6.00;5.50;;;;;;;4.46;34.49;102384.13;5011718;27;96954;-75
2021/04/15 01:10:29;;;;;;;5.05;4.65;;;;;;;4.46;34.22;102385.06;5000368;28;97711;-74
2021/04/15 01:13:13;;;;;;;5.70;5.30;;;;;;;4.47;34.34;102384.25;4994604;28;99335;-74
2021/04/15 01:15:49;;;;;;;5.68;5.22;;;;;;;4.47;34.72;102380.69;4998375;28;96854;-74
2021/04/15 01:18:20;;;;;;;5.90;5.50;;;;;;;4.47;34.57;102375.41;4988918;28;97643;-74
2021/04/15 01:21:06;;;;;;;5.45;5.15;;;;;;;4.47;34.38;102381.59;4984698;28;99826;-74
2021/04/15 01:23:37;;;;;;;6.22;5.55;;;;;;;4.47;34.64;102383.31;4990750;28;98731;-74
2021/04/15 01:26:52;;;;;;;5.85;5.30;;;;;;;4.49;34.58;102380.00;5011340;27;97612;-74
2021/04/15 01:29:24;;;;;;;4.95;4.65;;;;;;;4.48;34.33;102382.53;4992565;28;97137;-74
2021/04/15 01:31:58;;;;;;;6.65;5.22;;;;;;;4.47;34.18;102378.03;4992620;28;99391;-73
2021/04/15 01:34:33;;;;;;;5.75;5.25;;;;;;;4.48;34.10;102383.41;4994025;28;98747;-74
2021/04/15 01:37:03;;;;;;;5.78;5.28;;;;;;;4.42;34.30;102377.75;4992570;28;97711;-74
2021/04/15 01:39:33;;;;;;;5.90;5.30;;;;;;;4.42;34.32;102379.44;4987590;28;96802;-74
2021/04/15 01:42:04;;;;;;;6.15;5.40;;;;;;;4.40;34.50;102371.44;4988822;28;99277;-74
2021/04/15 01:44:36;;;;;;;5.78;5.28;;;;;;;4.38;34.52;102380.03;4990147;28;96949;-74
2021/04/15 01:47:06;;;;;;;5.72;5.30;;;;;;;4.35;34.39;102382.47;4993230;28;98009;-74
2021/04/15 01:49:38;;;;;;;6.05;5.65;;;;;;;4.30;34.56;102382.13;5010151;27;97767;-74
2021/04/15 01:52:07;;;;;;;6.68;5.55;;;;;;;4.29;34.55;102380.28;4990803;28;97480;-75
2021/04/15 01:54:38;;;;;;;5.75;5.35;;;;;;;4.29;34.55;102382.00;4987807;28;99413;-74
2021/04/15 01:57:09;;;;;;;5.55;5.05;;;;;;;4.28;34.58;102383.72;4989128;28;97152;-74
2021/04/15 01:59:40;;;;;;;5.40;5.00;;;;;;;4.28;34.68;102390.72;4990354;28;97650;-74
2021/04/15 02:02:13;;;;;;;6.22;5.53;;;;;;;4.26;34.51;102385.38;4988853;28;100702;-75
2021/04/15 02:04:47;;;;;;;6.80;5.55;;;;;;;4.23;34.60;102395.66;4986038;28;99625;-74
2021/04/15 02:07:16;;;;;;;6.15;5.32;;;;;;;4.27;34.44;102391.53;5003204;28;97473;-74
2021/04/15 02:09:45;;;;;;;5.80;5.40;;;;;;;4.30;34.55;102395.28;4989709;28;96867;-74
2021/04/15 02:12:16;;;;;;;5.53;5.03;;;;;;;4.28;34.80;102393.38;5001525;28;98103;-74
2021/04/15 02:15:06;;;;;;;6.00;5.57;;;;;;;4.29;34.29;102397.81;4987449;28;96827;-74
2021/04/15 02:17:36;;;;;;;6.45;5.50;;;;;;;4.28;34.02;102389.00;4988619;28;97266;-74
2021/04/15 02:20:07;;;;;;;5.35;4.95;;;;;;;4.29;34.33;102384.66;4976425;28;97275;-73
2021/04/15 02:22:38;;;;;;;6.03;5.57;;;;;;;4.21;34.25;102390.28;4991919;28;99375;-74
2021/04/15 02:25:09;;;;;;;5.88;5.53;;;;;;;4.19;34.39;102391.88;4989801;28;97562;-73
2021/04/15 02:27:41;;;;;;;5.68;5.18;;;;;;;4.20;34.17;102388.47;4973891;28;97704;-73
2021/04/15 02:30:14;;;;;;;5.57;5.22;;;;;;;4.19;34.62;102380.44;4973738;28;97177;-73
2021/04/15 02:32:43;;;;;;;6.30;5.53;;;;;;;4.19;34.49;102388.31;4990980;28;98060;-73
2021/04/15 02:35:11;;;;;;;6.00;5.35;;;;;;;4.18;34.28;102384.81;4998635;28;99325;-74
2021/04/15 02:37:41;;;;;;;5.38;5.05;;;;;;;4.16;34.55;102389.03;4987824;28;97774;-74
2021/04/15 02:40:11;;;;;;;7.13;5.47;;;;;;;4.10;34.48;102388.59;4970527;28;97674;-74
2021/04/15 02:42:40;;;;;;;6.05;5.63;;;;;;;4.01;34.74;102389.63;4987810;28;99298;-74
2021/04/15 02:45:19;;;;;;;6.85;5.43;;;;;;;3.93;34.42;102388.19;4970045;28;99285;-74
2021/04/15 02:47:50;;;;;;;5.65;5.22;;;;;;;3.85;34.84;102387.59;4989917;28;96709;-74
2021/04/15 02:50:20;;;;;;;6.03;5.43;;;;;;;3.80;34.35;102390.72;4987861;28;96915;-74
2021/04/15 02:52:50;;;;;;;6.90;5.53;;;;;;;3.75;34.65;102392.97;4989718;28;98913;-74
2021/04/15 02:55:19;;;;;;;11.68;5.57;;;;;;;3.68;35.24;102388.06;4988340;28;100928;-73
2021/04/15 02:57:49;;;;;;;5.57;5.05;;;;;;;3.66;35.26;102388.78;4986876;28;97221;-73
2021/04/15 03:00:20;;;;;;;5.70;5.15;;;;;;;3.59;35.36;102395.25;4990576;28;97026;-73
2021/04/15 03:02:49;;;;;;;6.03;5.30;;;;;;;3.51;35.03;102396.41;4987018;28;100858;-73
2021/04/15 03:05:20;;;;;;;5.82;5.40;;;;;;;3.46;35.10;102395.13;4986537;28;97096;-73
2021/04/15 03:07:48;;;;;;;6.45;5.40;;;;;;;3.39;35.45;102389.28;4988667;28;97503;-73
2021/04/15 03:10:17;;;;;;;5.35;5.05;;;;;;;3.36;35.12;102396.97;4988279;28;96971;-73
2021/04/15 03:12:48;;;;;;;6.72;5.57;;;;;;;3.29;34.93;102392.97;4986629;28;100597;-73
2021/04/15 03:15:19;;;;;;;6.10;5.40;;;;;;;3.25;34.83;102401.41;4988269;28;97576;-73
2021/04/15 03:17:48;;;;;;;6.47;5.25;;;;;;;3.21;35.54;102395.00;4986511;28;97049;-73
2021/04/15 03:20:16;;;;;;;5.85;5.13;;;;;;;3.20;35.19;102398.41;4986606;28;96832;-74
2021/04/15 03:22:49;;;;;;;5.32;4.93;;;;;;;3.15;35.08;102399.78;4989143;28;99630;-74
2021/04/15 03:25:16;;;;;;;6.00;5.40;;;;;;;3.13;34.99;102400.50;4991273;28;99362;-74
2021/04/15 03:27:50;;;;;;;5.72;5.32;;;;;;;3.12;34.93;102394.31;4989687;28;97190;-74
2021/04/15 03:30:20;;;;;;;5.90;5.40;;;;;;;3.05;35.28;102396.34;4987062;28;97280;-74
2021/04/15 03:32:51;;;;;;;7.82;5.88;;;;;;;3.02;35.87;102409.25;4987421;28;97540;-74
2021/04/15 03:35:26;;;;;;;5.88;5.40;;;;;;;3.02;35.60;102401.38;4972887;28;100304;-74
2021/04/15 03:37:59;;;;;;;5.85;5.28;;;;;;;3.04;34.97;102407.63;4972964;28;96959;-75
2021/04/15 03:40:28;;;;;;;6.93;6.32;;;;;;;3.05;35.36;102406.84;4992643;28;98448;-74
2021/04/15 03:42:57;;;;;;;5.57;5.07;;;;;;;3.03;35.10;102408.44;4987740;28;98848;-74
2021/04/15 03:45:47;;;;;;;6.72;5.63;;;;;;;3.01;34.82;102405.72;4985926;28;101043;-74
2021/04/15 03:48:18;;;;;;;7.18;5.50;;;;;;;3.01;35.46;102410.03;4987788;28;96934;-75
2021/04/15 03:50:50;;;;;;;6.55;5.85;;;;;;;3.02;35.04;102406.63;4973622;28;97989;-76
2021/04/15 03:53:20;;;;;;;6.32;5.60;;;;;;;3.04;35.44;102415.53;4989086;28;100221;-73
2021/04/15 03:55:48;;;;;;;6.45;5.95;;;;;;;3.04;35.51;102416.44;4991409;28;99147;-74
2021/04/15 03:58:18;;;;;;;6.10;5.30;;;;;;;3.04;35.14;102413.81;4989447;28;97242;-74
2021/04/15 04:00:48;;;;;;;5.75;5.30;;;;;;;3.07;35.08;102416.72;4990444;28;97819;-74
2021/04/15 04:03:17;;;;;;;5.82;5.20;;;;;;;3.06;34.89;102413.94;4989769;28;100472;-74
2021/04/15 04:05:48;;;;;;;5.75;5.35;;;;;;;3.06;35.17;102409.59;4972275;28;100448;-74
2021/04/15 04:08:19;;;;;;;6.25;5.75;;;;;;;3.03;35.45;102413.72;4992140;28;97393;-74
2021/04/15 04:10:47;;;;;;;8.48;7.57;;;;;;;2.98;35.45;102415.97;4997990;28;98047;-74
2021/04/15 04:13:21;;;;;;;7.55;6.65;;;;;;;2.95;35.57;102420.06;4990799;28;99294;-74
2021/04/15 04:15:52;;;;;;;14.02;8.63;;;;;;;2.90;35.41;102419.75;4990054;28;97418;-73
2021/04/15 04:18:24;;;;;;;6.57;6.07;;;;;;;2.88;35.43;102418.69;4973803;28;97428;-74
2021/04/15 04:20:54;;;;;;;6.00;5.50;;;;;;;2.86;35.71;102425.53;4997881;28;96819;-74
2021/04/15 04:23:27;;;;;;;5.95;5.55;;;;;;;2.86;35.36;102424.63;4995705;28;99669;-73
2021/04/15 04:26:18;;;;;;;5.30;4.85;;;;;;;2.85;35.10;102428.06;5001105;28;98022;-73
2021/04/15 04:29:03;;;;;;;5.35;5.05;;;;;;;2.81;34.74;102421.66;4997216;28;96987;-73
2021/04/15 04:31:34;;;;;;;6.60;5.43;;;;;;;2.77;35.41;102426.53;4996015;28;97443;-74
2021/04/15 04:34:02;;;;;;;6.15;5.63;;;;;;;2.76;35.13;102423.00;4994296;28;99689;-73
2021/04/15 04:36:32;;;;;;;6.38;5.78;;;;;;;2.74;35.33;102423.69;4998837;28;100926;-72
2021/04/15 04:38:59;;;;;;;31.20;21.58;;;;;;;2.78;35.06;102428.38;5006623;27;96776;-74
2021/04/15 04:41:30;;;;;;;56.05;21.55;;;;;;;2.82;34.91;102436.63;4987367;28;97677;-73
2021/04/15 04:44:00;;;;;;;20.77;11.95;;;;;;;2.84;35.55;102436.72;4989370;28;99510;-73
2021/04/15 04:46:33;;;;;;;5.78;5.28;;;;;;;2.87;34.39;102443.16;4989476;28;99483;-71
2021/04/15 04:49:03;;;;;;;6.72;6.20;;;;;;;2.86;35.14;102436.06;4993295;28;97988;-71
2021/04/15 04:51:42;;;;;;;6.65;6.05;;;;;;;2.87;34.47;102437.00;4988424;28;98708;-71
2021/04/15 04:54:09;;;;;;;9.25;7.25;;;;;;;2.83;34.89;102440.16;4991296;28;99448;-72
2021/04/15 04:56:40;;;;;;;10.65;7.18;;;;;;;2.84;34.51;102441.97;4990691;28;97865;-74
2021/04/15 04:59:12;;;;;;;7.45;6.70;;;;;;;2.85;34.78;102449.09;4988913;28;96856;-73
2021/04/15 05:01:41;;;;;;;15.68;9.88;;;;;;;2.88;34.75;102444.06;4991407;28;97293;-73
2021/04/15 05:04:09;;;;;;;8.65;7.22;;;;;;;2.92;34.80;102454.03;4971315;28;97808;-73
2021/04/15 05:06:41;;;;;;;7.60;6.82;;;;;;;2.92;34.77;102447.06;4988153;28;97843;-73
2021/04/15 05:09:11;;;;;;;6.70;6.00;;;;;;;2.94;35.16;102444.56;4990046;28;97732;-73
2021/04/15 05:11:40;;;;;;;7.45;6.85;;;;;;;2.91;34.55;102447.84;4985793;28;97637;-73
2021/04/15 05:14:08;;;;;;;6.45;5.90;;;;;;;2.92;34.64;102446.13;4987704;28;102160;-73
2021/04/15 05:16:41;;;;;;;6.63;6.03;;;;;;;2.92;34.52;102446.13;4986995;28;99859;-73
2021/04/15 05:19:08;;;;;;;6.88;5.97;;;;;;;2.92;35.01;102459.28;4990862;28;96777;-73
2021/04/15 05:21:36;;;;;;;26.35;13.98;;;;;;;2.94;34.41;102457.69;4977669;28;97307;-73
2021/04/15 05:24:09;;;;;;;10.25;7.97;;;;;;;2.93;34.36;102456.78;4994607;28;99168;-73
2021/04/15 05:26:38;;;;;;;6.78;6.18;;;;;;;2.97;35.13;102461.47;4991672;28;98946;-73
2021/04/15 05:29:07;;;;;;;7.15;6.47;;;;;;;2.99;34.97;102458.97;4992351;28;97849;-73
2021/04/15 05:31:41;;;;;;;6.40;5.78;;;;;;;3.04;34.68;102457.59;4995398;28;97873;-73
2021/04/15 05:34:16;;;;;;;8.13;7.03;;;;;;;3.08;34.56;102464.94;4994802;28;98206;-73
2021/04/15 05:36:43;;;;;;;7.43;6.65;;;;;;;3.07;35.11;102458.78;5006822;27;99407;-73
2021/04/15 05:39:15;;;;;;;6.65;6.03;;;;;;;3.04;34.76;102458.53;4992767;28;97181;-73
2021/04/15 05:41:45;;;;;;;6.57;6.05;;;;;;;3.08;34.98;102459.69;4988130;28;97211;-73
2021/04/15 05:44:17;;;;;;;7.85;6.05;;;;;;;3.10;35.30;102468.63;4989976;28;97701;-72
2021/04/15 05:46:47;;;;;;;6.95;6.40;;;;;;;3.11;34.35;102466.09;4991206;28;97678;-73
2021/04/15 05:49:17;;;;;;;6.68;6.07;;;;;;;3.14;34.85;102470.69;4989991;28;96904;-73
2021/04/15 05:51:51;;;;;;;22.73;12.80;;;;;;;3.12;34.49;102470.56;4991809;28;97698;-72
2021/04/15 05:54:20;;;;;;;7.25;6.65;;;;;;;3.15;34.84;102465.53;4987599;28;97069;-72
2021/04/15 05:56:53;;;;;;;6.88;5.88;;;;;;;3.14;34.62;102469.00;4990779;28;99824;-73
2021/04/15 05:59:29;;;;;;;6.72;6.13;;;;;;;3.15;35.03;102472.50;4987871;28;98300;-73
2021/04/15 06:02:08;;;;;;;6.57;5.95;;;;;;;3.16;34.61;102475.28;4991382;28;97958;-72
2021/04/15 06:04:37;;;;;;;8.52;6.32;;;;;;;3.18;34.40;102468.41;4993654;28;97077;-73
2021/04/15 06:07:05;;;;;;;9.27;6.35;;;;;;;3.20;34.25;102477.31;4989544;28;98805;-73
2021/04/15 06:09:32;;;;;;;7.03;6.25;;;;;;;3.21;34.68;102470.38;5009190;27;97837;-73
2021/04/15 06:12:02;;;;;;;7.18;6.22;;;;;;;3.24;34.72;102474.16;4975120;28;97702;-73
2021/04/15 06:14:36;;;;;;;6.30;5.80;;;;;;;3.29;34.98;102469.25;4987957;28;98101;-73
2021/04/15 06:17:14;;;;;;;6.53;5.90;;;;;;;3.28;35.12;102475.28;4970686;28;99754;-73
2021/04/15 06:19:44;;;;;;;6.88;6.30;;;;;;;3.33;34.54;102473.03;4986694;28;98904;-73
2021/04/15 06:22:16;;;;;;;6.72;6.15;;;;;;;3.37;34.92;102481.25;5009964;27;97004;-72
2021/04/15 06:24:44;;;;;;;6.10;5.43;;;;;;;3.46;34.52;102479.34;4988909;28;98446;-72
2021/04/15 06:27:12;;;;;;;6.13;5.63;;;;;;;3.52;34.58;102471.91;4988731;28;98778;-73
2021/04/15 06:29:47;;;;;;;9.75;7.63;;;;;;;3.54;34.49;102475.59;4971797;28;96919;-73
2021/04/15 06:32:23;;;;;;;6.60;6.00;;;;;;;3.61;34.87;102472.63;4989476;28;97527;-73
2021/04/15 06:34:50;;;;;;;6.57;5.90;;;;;;;3.65;34.23;102473.81;4991570;28;99236;-74
2021/04/15 06:37:20;;;;;;;7.50;5.95;;;;;;;3.72;34.90;102473.47;4998833;28;101033;-73
2021/04/15 06:39:49;;;;;;;7.05;5.57;;;;;;;3.80;34.51;102475.88;4992497;28;97189;-73
2021/04/15 06:43:01;;;;;;;7.03;5.47;;;;;;;3.93;34.57;102483.00;5006141;27;97401;-73
2021/04/15 06:45:37;;;;;;;8.10;5.80;;;;;;;4.01;34.52;102472.22;4950323;28;98770;-73
2021/04/15 06:48:38;;;;;;;6.07;5.55;;;;;;;4.10;34.65;102470.25;4933244;28;100759;-73
2021/04/15 06:51:23;;;;;;;7.63;5.72;;;;;;;4.14;34.68;102469.69;4944568;28;97153;-73
2021/04/15 06:53:58;;;;;;;6.05;5.53;;;;;;;4.20;34.37;102479.75;4981933;28;96995;-73
2021/04/15 06:56:31;;;;;;;7.22;6.25;;;;;;;4.22;34.23;102478.16;4993891;28;97675;-72
2021/04/15 06:59:36;;;;;;;7.05;5.05;;;;;;;4.29;34.38;102483.06;4990282;28;97684;-73
2021/04/15 07:02:07;;;;;;;6.68;5.50;;;;;;;4.32;33.85;102474.50;4978103;28;96750;-73
2021/04/15 07:04:42;;;;;;;5.97;5.38;;;;;;;4.40;33.79;102473.31;4989640;28;98029;-73
2021/04/15 07:07:12;;;;;;;6.22;4.88;;;;;;;4.49;34.09;102474.91;4995761;28;97727;-73
2021/04/15 07:10:06;;;;;;;5.68;5.18;;;;;;;4.63;33.74;102473.22;4990302;28;99849;-73
2021/04/15 07:13:11;;;;;;;5.50;4.95;;;;;;;4.74;33.80;102467.00;4989921;28;97544;-73
2021/04/15 07:16:01;;;;;;;6.78;5.53;;;;;;;4.85;33.81;102469.63;4992992;28;97312;-73
2021/04/15 07:18:51;;;;;;;15.13;8.93;;;;;;;4.82;34.02;102468.47;4990747;28;98211;-74
2021/04/15 07:21:33;;;;;;;5.97;5.40;;;;;;;4.93;33.52;102467.53;4996342;28;98781;-73
2021/04/15 07:24:31;;;;;;;5.93;5.40;;;;;;;5.00;33.64;102468.06;4992481;28;97212;-73
2021/04/15 07:27:31;;;;;;;6.18;4.85;;;;;;;5.16;33.33;102472.72;4990802;28;98649;-73
2021/04/15 07:30:22;;;;;;;12.25;5.95;;;;;;;5.25;33.43;102476.00;4991334;28;99508;-73
2021/04/15 07:33:23;;;;;;;7.85;5.95;;;;;;;5.34;33.27;102470.47;4996170;28;99201;-73
2021/04/15 07:36:29;;;;;;;6.50;5.68;;;;;;;5.36;33.34;102474.13;5027477;27;97410;-73
2021/04/15 07:39:15;;;;;;;5.90;5.32;;;;;;;5.42;33.07;102475.44;4992793;28;97564;-73
2021/04/15 07:41:57;;;;;;;6.30;5.50;;;;;;;5.50;33.15;102474.25;4992317;28;98952;-73
2021/04/15 07:44:31;;;;;;;6.35;5.85;;;;;;;5.57;33.02;102475.56;4997849;28;99611;-73
2021/04/15 07:47:26;;;;;;;7.65;5.65;;;;;;;5.68;33.17;102472.84;5000127;28;96960;-73
2021/04/15 07:50:42;;;;;;;6.13;5.60;;;;;;;5.75;33.21;102476.81;4999475;28;97621;-73
2021/04/15 07:53:58;;;;;;;6.45;5.72;;;;;;;5.86;33.11;102476.75;4997874;28;100160;-72
2021/04/15 07:56:50;;;;;;;6.20;5.70;;;;;;;5.98;32.58;102476.63;4902629;28;98136;-72
2021/04/15 07:59:26;;;;;;;10.15;5.95;;;;;;;6.04;32.77;102477.97;4972364;28;97405;-72
2021/04/15 08:02:35;;;;;;;6.90;5.82;;;;;;;6.09;32.50;102465.03;5003515;28;96920;-73
2021/04/15 08:05:34;;;;;;;5.80;5.38;;;;;;;6.13;32.61;102473.28;4978218;28;99824;-74
2021/04/15 08:08:18;;;;;;;6.32;5.65;;;;;;;6.11;32.83;102472.25;5000443;28;97738;-72
2021/04/15 08:11:08;;;;;;;7.57;6.60;;;;;;;6.20;32.85;102475.50;4992392;28;97002;-73
2021/04/15 08:13:47;;;;;;;6.20;5.80;;;;;;;6.17;33.07;102479.69;4999347;28;96956;-73
2021/04/15 08:16:52;;;;;;;5.95;5.45;;;;;;;6.28;33.01;102480.41;4997731;28;98722;-73
2021/04/15 08:19:46;;;;;;;7.25;6.50;;;;;;;6.36;32.83;102479.19;4998327;28;98387;-73
2021/04/15 08:22:17;;;;;;;5.85;5.35;;;;;;;6.41;32.69;102478.69;5016443;27;97130;-72
2021/04/15 08:24:58;;;;;;;9.65;5.95;;;;;;;6.51;32.94;102482.81;4995064;28;97035;-73
2021/04/15 08:27:47;;;;;;;41.60;22.38;;;;;;;6.62;32.68;102477.41;4997837;28;97976;-74
2021/04/15 08:30:34;;;;;;;29.77;17.77;;;;;;;6.73;32.61;102476.34;5012835;27;99130;-75
2021/04/15 08:33:13;;;;;;;10.93;8.63;;;;;;;6.78;32.44;102474.00;4998199;28;96756;-73
2021/04/15 08:36:01;;;;;;;8.00;5.50;;;;;;;6.89;32.52;102475.59;4998275;28;97246;-74
2021/04/15 08:38:35;;;;;;;20.42;10.70;;;;;;;6.94;32.32;102474.16;4983226;28;97591;-75
2021/04/15 08:41:16;;;;;;;16.38;11.68;;;;;;;7.08;32.18;102471.53;4997136;28;98484;-74
2021/04/15 08:44:08;;;;;;;9.25;8.02;;;;;;;7.13;32.05;102475.38;5001998;28;96960;-74
2021/04/15 08:46:39;;;;;;;8.07;6.63;;;;;;;7.23;32.04;102479.53;5001701;28;97084;-72
2021/04/15 08:49:09;;;;;;;5.43;5.03;;;;;;;7.29;32.22;102474.56;4999849;28;97534;-73
2021/04/15 08:51:58;;;;;;;5.82;5.13;;;;;;;7.40;31.99;102470.84;4998831;28;99248;-72
2021/04/15 08:54:34;;;;;;;4.97;4.57;;;;;;;7.49;31.84;102470.53;5006526;28;96889;-73
2021/04/15 08:57:05;;;;;;;5.95;4.65;;;;;;;7.57;31.76;102472.81;5004756;28;96995;-73
2021/04/15 08:59:40;;;;;;;4.97;4.43;;;;;;;7.63;31.34;102459.97;4995988;28;99650;-73
2021/04/15 09:02:19;;;;;;;5.03;4.72;;;;;;;7.69;31.25;102455.00;5005983;28;98935;-72
2021/04/15 09:04:58;;;;;;;12.57;7.25;;;;;;;7.75;30.92;102460.66;4996932;28;97534;-73
2021/04/15 09:07:33;;;;;;;10.23;7.65;;;;;;;7.79;31.32;102454.72;4992410;28;97615;-73
2021/04/15 09:10:14;;;;;;;5.20;4.20;;;;;;;7.85;31.15;102457.75;4993355;28;99069;-73
2021/04/15 09:12:55;;;;;;;4.07;3.75;;;;;;;7.97;30.86;102455.81;4994408;28;97665;-73
2021/04/15 09:15:28;;;;;;;4.18;3.55;;;;;;;8.01;30.87;102455.16;4977776;28;96903;-74
2021/04/15 09:18:05;;;;;;;4.68;3.58;;;;;;;8.04;30.77;102457.06;4976563;28;97513;-73
2021/04/15 09:20:35;;;;;;;3.92;3.60;;;;;;;8.14;30.93;102455.06;4997144;28;98750;-74
2021/04/15 09:23:31;;;;;;;3.63;3.40;;;;;;;8.22;30.02;102451.09;4990846;28;97596;-74
2021/04/15 09:26:08;;;;;;;4.53;4.18;;;;;;;8.30;30.34;102459.47;4995071;28;97623;-73
2021/04/15 09:28:40;;;;;;;3.17;2.92;;;;;;;8.35;30.28;102452.69;5007330;27;97399;-73
2021/04/15 09:31:14;;;;;;;4.00;3.65;;;;;;;8.40;30.31;102447.66;4996744;28;101065;-73
2021/04/15 09:34:16;;;;;;;3.97;3.53;;;;;;;8.50;29.65;102452.66;4994250;28;99005;-73
2021/04/15 09:36:52;;;;;;;5.25;3.92;;;;;;;8.55;29.79;102448.56;4994218;28;96946;-73
2021/04/15 09:39:31;;;;;;;4.15;3.80;;;;;;;8.62;29.79;102442.75;5002896;28;96951;-73
2021/04/15 09:42:40;;;;;;;6.68;5.47;;;;;;;8.72;28.71;102445.06;4992911;28;99527;-74
2021/04/15 09:45:33;;;;;;;17.83;10.05;;;;;;;8.79;28.91;102436.63;4978404;28;97674;-73
2021/04/15 09:48:09;;;;;;;4.32;3.67;;;;;;;8.81;28.73;102440.28;4978918;28;97770;-74
2021/04/15 09:50:44;;;;;;;3.40;3.20;;;;;;;8.84;29.41;102440.47;4991556;28;97879;-74
2021/04/15 09:53:26;;;;;;;3.60;3.30;;;;;;;8.86;28.55;102438.81;4993805;28;101067;-73
2021/04/15 09:56:14;;;;;;;3.60;3.08;;;;;;;8.88;28.60;102432.72;5024322;27;97243;-73
2021/04/15 09:58:45;;;;;;;37.33;16.95;;;;;;;8.91;29.31;102430.25;4994616;28;98272;-74
2021/04/15 10:01:16;;;;;;;7.55;5.80;;;;;;;8.91;29.05;102424.94;4994379;28;96791;-73
2021/04/15 10:03:49;;;;;;;4.00;3.70;;;;;;;8.96;29.23;102431.41;4989026;28;98364;-73
2021/04/15 10:06:22;;;;;;;4.20;3.90;;;;;;;9.01;28.95;102428.97;4996358;28;99937;-73
2021/04/15 10:09:18;;;;;;;3.70;3.13;;;;;;;9.00;28.35;102429.84;4986359;28;97530;-73
2021/04/15 10:11:52;;;;;;;6.38;5.63;;;;;;;8.96;27.85;102417.22;4995452;28;97047;-73
2021/04/15 10:14:33;;;;;;;21.98;12.20;;;;;;;8.99;28.53;102417.38;4989257;28;100225;-73
2021/04/15 10:17:08;;;;;;;11.95;8.45;;;;;;;9.02;28.78;102409.59;4973828;28;100398;-73
2021/04/15 10:20:18;;;;;;;8.13;5.47;;;;;;;9.13;28.18;102411.06;4992444;28;97464;-73
2021/04/15 10:23:03;;;;;;;17.38;9.70;;;;;;;9.17;28.29;102402.41;4949532;28;96932;-74
2021/04/15 10:25:32;;;;;;;5.90;4.72;;;;;;;9.21;28.92;102407.06;4985748;28;99542;-75
2021/04/15 10:28:36;;;;;;;4.30;3.90;;;;;;;9.24;27.02;102402.81;4995791;28;99443;-74
2021/04/15 10:31:35;;;;;;;4.97;4.28;;;;;;;9.27;27.72;102407.38;4988830;28;97138;-74
2021/04/15 10:34:30;;;;;;;21.60;13.05;;;;;;;9.36;27.69;102401.63;4991080;28;97604;-74
2021/04/15 10:37:05;;;;;;;12.07;9.52;;;;;;;9.31;28.08;102398.75;4976902;28;99224;-74
2021/04/15 10:40:07;;;;;;;12.07;8.88;;;;;;;9.37;27.64;102399.03;4991180;28;97938;-75
2021/04/15 10:43:10;;;;;;;4.40;4.00;;;;;;;9.44;27.32;102406.53;4993692;28;97017;-74
2021/04/15 10:46:03;;;;;;;3.35;3.20;;;;;;;9.52;28.00;102402.53;4989397;28;97412;-74
2021/04/15 10:48:37;;;;;;;4.25;3.88;;;;;;;9.53;27.90;102396.41;4973785;28;100013;-74
2021/04/15 10:51:09;;;;;;;3.85;3.55;;;;;;;9.60;28.44;102387.91;4991555;28;97483;-74
2021/04/15 10:53:48;;;;;;;3.00;2.88;;;;;;;9.61;28.01;102395.00;4991845;28;96706;-74
2021/04/15 10:56:33;;;;;;;3.65;3.28;;;;;;;9.53;26.69;102390.16;4975428;28;97740;-74
2021/04/15 10:59:23;;;;;;;2.50;2.40;;;;;;;9.52;27.62;102388.31;4994790;28;98807;-74
2021/04/15 11:01:50;;;;;;;2.65;2.53;;;;;;;9.54;28.22;102392.88;5020139;27;98290;-74
2021/04/15 11:04:25;;;;;;;2.70;2.53;;;;;;;9.50;27.93;102390.03;4995609;28;97548;-75
2021/04/15 11:06:57;;;;;;;3.45;3.13;;;;;;;9.52;28.08;102386.56;4990397;28;97901;-75
2021/04/15 11:09:32;;;;;;;2.90;2.67;;;;;;;9.56;27.59;102385.00;4989921;28;98297;-75
2021/04/15 11:12:04;;;;;;;3.45;3.05;;;;;;;9.57;27.81;102382.41;4990019;28;97562;-75
2021/04/15 11:14:35;;;;;;;16.20;10.05;;;;;;;9.51;27.87;102384.78;4991548;28;96826;-75
2021/04/15 11:17:05;;;;;;;32.38;17.08;;;;;;;9.52;27.86;102385.66;4991803;28;97240;-75
2021/04/15 11:19:32;;;;;;;4.32;3.92;;;;;;;9.50;27.88;102390.91;4971585;28;100133;-75
2021/04/15 11:22:13;;;;;;;3.08;2.88;;;;;;;9.47;27.08;102389.81;4990800;28;99647;-75
2021/04/15 11:24:42;;;;;;;3.25;3.05;;;;;;;9.46;27.92;102383.59;4991042;28;96777;-74
2021/04/15 11:27:11;;;;;;;2.70;2.55;;;;;;;9.42;27.83;102378.97;5002983;27;97875;-75
2021/04/15 11:29:41;;;;;;;32.90;15.27;;;;;;;9.42;27.80;102378.97;4990717;28;99401;-74
2021/04/15 11:32:23;;;;;;;6.10;4.65;;;;;;;9.45;26.10;102375.53;4990742;28;100849;-76
2021/04/15 11:35:13;;;;;;;3.10;2.90;;;;;;;9.49;26.46;102383.78;5002559;28;97820;-76
2021/04/15 11:37:42;;;;;;;3.35;3.15;;;;;;;9.52;27.75;102383.00;4991596;28;97807;-75
2021/04/15 11:40:22;;;;;;;3.78;3.45;;;;;;;9.52;27.11;102375.03;4992838;28;98075;-75
2021/04/15 11:42:50;;;;;;;3.35;3.00;;;;;;;9.49;27.70;102374.88;4985565;28;97946;-74
2021/04/15 11:45:27;;;;;;;4.60;2.70;;;;;;;9.53;26.97;102390.16;4991448;28;96895;-75
2021/04/15 11:48:13;;;;;;;2.88;2.60;;;;;;;9.60;26.98;102379.00;4990237;28;96810;-75
2021/04/15 11:50:41;;;;;;;2.47;2.38;;;;;;;9.66;27.46;102382.91;4994180;28;100000;-74
2021/04/15 11:53:26;;;;;;;2.72;2.53;;;;;;;9.74;26.41;102389.50;4984699;28;99335;-74
2021/04/15 11:56:11;;;;;;;2.20;2.20;;;;;;;9.78;26.26;102383.50;4982261;28;97792;-77
2021/04/15 11:58:39;;;;;;;2.33;2.10;;;;;;;9.81;27.13;102378.31;4985488;28;97002;-74
2021/04/15 12:01:06;;;;;;;2.63;2.53;;;;;;;9.90;27.15;102373.44;4986421;28;100513;-74
2021/04/15 12:03:34;;;;;;;2.40;2.40;;;;;;;9.95;27.06;102371.03;4987383;28;98915;-75
2021/04/15 12:06:06;;;;;;;2.15;2.15;;;;;;;10.00;26.77;102365.09;4984014;28;97057;-75
2021/04/15 12:08:37;;;;;;;2.35;2.28;;;;;;;10.11;26.86;102373.59;5001918;28;96933;-77
2021/04/15 12:11:09;;;;;;;2.50;2.40;;;;;;;10.20;26.53;102369.63;4986108;28;99265;-75
2021/04/15 12:13:40;;;;;;;2.47;2.28;;;;;;;10.12;26.49;102376.31;4992231;28;100376;-74